Le Center, Minnesota
Current Conditions -  °F | °C
As of 3:55 PM on Wednesday 26 Nov 2014 (Local Time) from KMKT Reporting Station
Overcast Overcast  
Wind Chill: 13°   Ceiling: 1200
Heat Index: 25°   Visibility: 10mi
Dew Point: 18°   Wind: 14mph
Humidity: 74%   Direction: 340°NNW
Pressure: 30.24"   Gusts: NA
Location:  44.39°N, 93.73°W
Report Text: KMKT 262155Z AUTO 34012KT 10SM OVC012 M04/M08 A3024 RMK AO1
Loading
Personal Weather Stations






























Interactive Weather Map New forecast layout! Learn more

10-Day Weather Forecast

Advertisements
Track Severe Weather on mobile